sensor_id;sensor_type;location;lat;lon;timestamp;P1;durP1;ratioP1;P2;durP2;ratioP2
24305;SDS011;12423;48.768;8.850;2023-05-27T00:01:25;9.65;;;3.50;;
24305;SDS011;12423;48.768;8.850;2023-05-27T00:03:26;9.57;;;4.00;;
24305;SDS011;12423;48.768;8.850;2023-05-27T00:05:27;13.68;;;4.70;;
24305;SDS011;12423;48.768;8.850;2023-05-27T00:07:28;10.48;;;3.47;;
24305;SDS011;12423;48.768;8.850;2023-05-27T00:09:29;11.15;;;4.00;;
24305;SDS011;12423;48.768;8.850;2023-05-27T00:11:30;10.32;;;3.60;;
24305;SDS011;12423;48.768;8.850;2023-05-27T00:13:31;12.20;;;3.75;;
24305;SDS011;12423;48.768;8.850;2023-05-27T00:15:32;16.80;;;3.15;;
24305;SDS011;12423;48.768;8.850;2023-05-27T00:17:34;8.52;;;3.30;;
24305;SDS011;12423;48.768;8.850;2023-05-27T00:19:35;8.95;;;4.30;;
24305;SDS011;12423;48.768;8.850;2023-05-27T00:21:36;8.02;;;3.78;;
24305;SDS011;12423;48.768;8.850;2023-05-27T00:23:37;12.85;;;3.40;;
24305;SDS011;12423;48.768;8.850;2023-05-27T00:25:38;10.00;;;3.58;;
24305;SDS011;12423;48.768;8.850;2023-05-27T00:27:39;11.25;;;3.63;;
24305;SDS011;12423;48.768;8.850;2023-05-27T00:29:40;11.52;;;3.75;;
24305;SDS011;12423;48.768;8.850;2023-05-27T00:31:42;8.25;;;3.38;;
24305;SDS011;12423;48.768;8.850;2023-05-27T00:33:43;11.77;;;3.58;;
24305;SDS011;12423;48.768;8.850;2023-05-27T00:35:44;7.80;;;3.13;;
24305;SDS011;12423;48.768;8.850;2023-05-27T00:37:45;10.63;;;3.55;;
24305;SDS011;12423;48.768;8.850;2023-05-27T00:39:46;11.90;;;3.55;;
24305;SDS011;12423;48.768;8.850;2023-05-27T00:41:48;10.40;;;3.38;;
24305;SDS011;12423;48.768;8.850;2023-05-27T00:43:51;8.65;;;3.13;;
24305;SDS011;12423;48.768;8.850;2023-05-27T00:45:52;9.88;;;3.25;;
24305;SDS011;12423;48.768;8.850;2023-05-27T00:47:53;11.93;;;3.30;;
24305;SDS011;12423;48.768;8.850;2023-05-27T00:49:54;10.25;;;3.38;;
24305;SDS011;12423;48.768;8.850;2023-05-27T00:51:56;13.13;;;3.47;;
24305;SDS011;12423;48.768;8.850;2023-05-27T00:53:57;13.65;;;3.78;;
24305;SDS011;12423;48.768;8.850;2023-05-27T00:55:58;11.38;;;3.63;;
24305;SDS011;12423;48.768;8.850;2023-05-27T00:58:01;12.60;;;3.28;;
24305;SDS011;12423;48.768;8.850;2023-05-27T01:00:02;12.55;;;3.88;;
24305;SDS011;12423;48.768;8.850;2023-05-27T01:02:07;9.38;;;3.30;;
24305;SDS011;12423;48.768;8.850;2023-05-27T01:04:08;10.25;;;3.78;;
24305;SDS011;12423;48.768;8.850;2023-05-27T01:11:28;10.65;;;3.33;;
24305;SDS011;12423;48.768;8.850;2023-05-27T01:13:35;8.27;;;3.28;;
24305;SDS011;12423;48.768;8.850;2023-05-27T01:15:47;10.05;;;3.53;;
24305;SDS011;12423;48.768;8.850;2023-05-27T01:17:53;12.43;;;3.60;;
24305;SDS011;12423;48.768;8.850;2023-05-27T01:19:56;11.20;;;3.38;;
24305;SDS011;12423;48.768;8.850;2023-05-27T01:22:00;12.18;;;3.28;;
24305;SDS011;12423;48.768;8.850;2023-05-27T01:24:03;10.15;;;3.63;;
24305;SDS011;12423;48.768;8.850;2023-05-27T01:26:04;11.02;;;3.20;;
24305;SDS011;12423;48.768;8.850;2023-05-27T01:28:06;8.65;;;3.53;;
24305;SDS011;12423;48.768;8.850;2023-05-27T01:30:07;11.00;;;3.63;;
24305;SDS011;12423;48.768;8.850;2023-05-27T01:32:13;10.85;;;3.38;;
24305;SDS011;12423;48.768;8.850;2023-05-27T01:34:15;12.40;;;3.78;;
24305;SDS011;12423;48.768;8.850;2023-05-27T01:36:22;9.45;;;3.35;;
24305;SDS011;12423;48.768;8.850;2023-05-27T01:38:26;12.35;;;3.40;;
24305;SDS011;12423;48.768;8.850;2023-05-27T01:40:30;10.73;;;3.00;;
24305;SDS011;12423;48.768;8.850;2023-05-27T01:42:36;9.38;;;3.40;;
24305;SDS011;12423;48.768;8.850;2023-05-27T01:44:39;17.02;;;3.50;;
24305;SDS011;12423;48.768;8.850;2023-05-27T01:46:41;8.98;;;4.35;;
24305;SDS011;12423;48.768;8.850;2023-05-27T01:48:42;10.27;;;3.35;;
24305;SDS011;12423;48.768;8.850;2023-05-27T01:50:43;12.80;;;3.60;;
24305;SDS011;12423;48.768;8.850;2023-05-27T01:52:46;12.07;;;3.95;;
24305;SDS011;12423;48.768;8.850;2023-05-27T01:54:47;12.73;;;4.25;;
24305;SDS011;12423;48.768;8.850;2023-05-27T01:56:48;8.95;;;3.90;;
24305;SDS011;12423;48.768;8.850;2023-05-27T01:58:49;11.40;;;3.38;;
24305;SDS011;12423;48.768;8.850;2023-05-27T02:00:50;10.20;;;3.53;;
24305;SDS011;12423;48.768;8.850;2023-05-27T02:02:51;10.35;;;4.00;;
24305;SDS011;12423;48.768;8.850;2023-05-27T02:04:53;11.82;;;3.67;;
24305;SDS011;12423;48.768;8.850;2023-05-27T02:06:55;12.07;;;3.42;;
24305;SDS011;12423;48.768;8.850;2023-05-27T02:08:56;12.32;;;3.85;;
24305;SDS011;12423;48.768;8.850;2023-05-27T02:10:57;11.45;;;3.53;;
24305;SDS011;12423;48.768;8.850;2023-05-27T02:12:58;10.57;;;3.70;;
24305;SDS011;12423;48.768;8.850;2023-05-27T02:14:59;12.35;;;4.28;;
24305;SDS011;12423;48.768;8.850;2023-05-27T02:17:00;16.20;;;4.63;;
24305;SDS011;12423;48.768;8.850;2023-05-27T02:19:01;13.15;;;3.75;;
24305;SDS011;12423;48.768;8.850;2023-05-27T02:21:02;10.52;;;3.58;;
24305;SDS011;12423;48.768;8.850;2023-05-27T02:23:06;13.40;;;4.07;;
24305;SDS011;12423;48.768;8.850;2023-05-27T02:25:08;11.82;;;3.85;;
24305;SDS011;12423;48.768;8.850;2023-05-27T02:27:09;13.02;;;3.53;;
24305;SDS011;12423;48.768;8.850;2023-05-27T02:29:10;13.52;;;3.53;;
24305;SDS011;12423;48.768;8.850;2023-05-27T02:31:11;12.35;;;4.30;;
24305;SDS011;12423;48.768;8.850;2023-05-27T02:33:12;12.18;;;4.55;;
24305;SDS011;12423;48.768;8.850;2023-05-27T02:35:13;10.20;;;4.10;;
24305;SDS011;12423;48.768;8.850;2023-05-27T02:37:17;10.80;;;4.22;;
24305;SDS011;12423;48.768;8.850;2023-05-27T02:39:18;11.40;;;4.25;;
24305;SDS011;12423;48.768;8.850;2023-05-27T02:41:20;10.77;;;4.22;;
24305;SDS011;12423;48.768;8.850;2023-05-27T02:43:21;12.43;;;4.82;;
24305;SDS011;12423;48.768;8.850;2023-05-27T02:45:22;9.35;;;3.95;;
24305;SDS011;12423;48.768;8.850;2023-05-27T02:47:25;7.65;;;3.88;;
24305;SDS011;12423;48.768;8.850;2023-05-27T02:49:26;10.68;;;4.22;;
24305;SDS011;12423;48.768;8.850;2023-05-27T02:51:27;12.60;;;4.15;;
24305;SDS011;12423;48.768;8.850;2023-05-27T02:53:29;13.38;;;4.68;;
24305;SDS011;12423;48.768;8.850;2023-05-27T02:55:30;12.25;;;4.15;;
24305;SDS011;12423;48.768;8.850;2023-05-27T02:57:31;11.15;;;4.97;;
24305;SDS011;12423;48.768;8.850;2023-05-27T02:59:32;11.05;;;3.78;;
24305;SDS011;12423;48.768;8.850;2023-05-27T03:01:33;7.40;;;3.50;;
24305;SDS011;12423;48.768;8.850;2023-05-27T03:03:34;10.15;;;3.78;;
24305;SDS011;12423;48.768;8.850;2023-05-27T03:05:36;11.73;;;4.10;;
24305;SDS011;12423;48.768;8.850;2023-05-27T03:07:37;10.15;;;3.88;;
24305;SDS011;12423;48.768;8.850;2023-05-27T03:09:38;14.02;;;5.28;;
24305;SDS011;12423;48.768;8.850;2023-05-27T03:11:39;12.60;;;4.45;;
24305;SDS011;12423;48.768;8.850;2023-05-27T03:13:40;11.95;;;3.90;;
24305;SDS011;12423;48.768;8.850;2023-05-27T03:15:41;14.40;;;3.92;;
24305;SDS011;12423;48.768;8.850;2023-05-27T03:17:42;13.25;;;4.57;;
24305;SDS011;12423;48.768;8.850;2023-05-27T03:19:44;12.13;;;4.15;;
24305;SDS011;12423;48.768;8.850;2023-05-27T03:21:45;14.73;;;4.50;;
24305;SDS011;12423;48.768;8.850;2023-05-27T03:23:48;11.98;;;4.30;;
24305;SDS011;12423;48.768;8.850;2023-05-27T03:25:49;10.23;;;3.72;;
24305;SDS011;12423;48.768;8.850;2023-05-27T03:27:51;14.15;;;4.20;;
24305;SDS011;12423;48.768;8.850;2023-05-27T03:29:53;17.48;;;4.65;;
24305;SDS011;12423;48.768;8.850;2023-05-27T03:31:54;17.15;;;4.18;;
24305;SDS011;12423;48.768;8.850;2023-05-27T03:33:56;15.32;;;4.07;;
24305;SDS011;12423;48.768;8.850;2023-05-27T03:35:57;11.70;;;3.75;;
24305;SDS011;12423;48.768;8.850;2023-05-27T03:37:58;13.77;;;4.30;;
24305;SDS011;12423;48.768;8.850;2023-05-27T03:39:59;9.05;;;3.78;;
24305;SDS011;12423;48.768;8.850;2023-05-27T03:42:01;12.68;;;4.43;;
24305;SDS011;12423;48.768;8.850;2023-05-27T03:44:03;14.20;;;3.70;;
24305;SDS011;12423;48.768;8.850;2023-05-27T03:46:04;12.02;;;4.35;;
24305;SDS011;12423;48.768;8.850;2023-05-27T03:48:05;12.27;;;4.22;;
24305;SDS011;12423;48.768;8.850;2023-05-27T03:50:06;12.30;;;3.88;;
24305;SDS011;12423;48.768;8.850;2023-05-27T03:52:07;10.68;;;3.78;;
24305;SDS011;12423;48.768;8.850;2023-05-27T03:54:08;10.55;;;3.78;;
24305;SDS011;12423;48.768;8.850;2023-05-27T03:56:09;10.93;;;3.90;;
24305;SDS011;12423;48.768;8.850;2023-05-27T03:58:10;13.32;;;3.85;;
24305;SDS011;12423;48.768;8.850;2023-05-27T04:00:14;14.05;;;3.92;;
24305;SDS011;12423;48.768;8.850;2023-05-27T04:02:22;14.48;;;4.50;;
24305;SDS011;12423;48.768;8.850;2023-05-27T04:04:23;15.02;;;5.28;;
24305;SDS011;12423;48.768;8.850;2023-05-27T04:06:24;14.30;;;4.50;;
24305;SDS011;12423;48.768;8.850;2023-05-27T04:08:26;16.42;;;4.53;;
24305;SDS011;12423;48.768;8.850;2023-05-27T04:10:28;12.50;;;3.53;;
24305;SDS011;12423;48.768;8.850;2023-05-27T04:12:30;11.07;;;3.80;;
24305;SDS011;12423;48.768;8.850;2023-05-27T04:14:31;17.02;;;5.95;;
24305;SDS011;12423;48.768;8.850;2023-05-27T04:16:32;15.45;;;4.55;;
24305;SDS011;12423;48.768;8.850;2023-05-27T04:18:34;10.65;;;4.03;;
24305;SDS011;12423;48.768;8.850;2023-05-27T04:20:38;20.13;;;5.60;;
24305;SDS011;12423;48.768;8.850;2023-05-27T04:22:41;17.75;;;4.90;;
24305;SDS011;12423;48.768;8.850;2023-05-27T04:24:43;12.98;;;4.13;;
24305;SDS011;12423;48.768;8.850;2023-05-27T04:26:45;11.38;;;3.78;;
24305;SDS011;12423;48.768;8.850;2023-05-27T04:28:47;9.43;;;3.53;;
24305;SDS011;12423;48.768;8.850;2023-05-27T04:30:48;15.43;;;4.57;;
24305;SDS011;12423;48.768;8.850;2023-05-27T04:33:05;13.40;;;4.45;;
24305;SDS011;12423;48.768;8.850;2023-05-27T04:35:09;12.52;;;4.05;;
24305;SDS011;12423;48.768;8.850;2023-05-27T04:37:11;14.07;;;4.18;;
24305;SDS011;12423;48.768;8.850;2023-05-27T04:39:12;12.35;;;4.05;;
24305;SDS011;12423;48.768;8.850;2023-05-27T04:41:16;14.38;;;4.47;;
24305;SDS011;12423;48.768;8.850;2023-05-27T04:43:37;16.08;;;5.22;;
24305;SDS011;12423;48.768;8.850;2023-05-27T04:45:38;14.15;;;4.22;;
24305;SDS011;12423;48.768;8.850;2023-05-27T04:47:39;11.68;;;3.90;;
24305;SDS011;12423;48.768;8.850;2023-05-27T04:49:43;11.98;;;4.47;;
24305;SDS011;12423;48.768;8.850;2023-05-27T04:51:47;14.95;;;4.20;;
24305;SDS011;12423;48.768;8.850;2023-05-27T04:53:50;19.80;;;4.38;;
24305;SDS011;12423;48.768;8.850;2023-05-27T04:55:53;10.48;;;4.20;;
24305;SDS011;12423;48.768;8.850;2023-05-27T04:57:54;15.10;;;4.70;;
24305;SDS011;12423;48.768;8.850;2023-05-27T04:59:56;15.38;;;4.15;;
24305;SDS011;12423;48.768;8.850;2023-05-27T05:02:21;13.98;;;4.72;;
24305;SDS011;12423;48.768;8.850;2023-05-27T05:04:37;13.95;;;4.45;;
24305;SDS011;12423;48.768;8.850;2023-05-27T05:06:39;15.57;;;4.30;;
24305;SDS011;12423;48.768;8.850;2023-05-27T05:08:42;16.05;;;4.50;;
24305;SDS011;12423;48.768;8.850;2023-05-27T05:10:43;13.38;;;4.55;;
24305;SDS011;12423;48.768;8.850;2023-05-27T05:12:44;10.48;;;3.90;;
24305;SDS011;12423;48.768;8.850;2023-05-27T05:14:45;12.70;;;4.10;;
24305;SDS011;12423;48.768;8.850;2023-05-27T05:16:46;13.65;;;3.80;;
24305;SDS011;12423;48.768;8.850;2023-05-27T05:18:48;13.30;;;4.72;;
24305;SDS011;12423;48.768;8.850;2023-05-27T05:20:51;12.13;;;4.18;;
24305;SDS011;12423;48.768;8.850;2023-05-27T05:22:58;15.52;;;4.28;;
24305;SDS011;12423;48.768;8.850;2023-05-27T05:25:00;15.02;;;4.47;;
24305;SDS011;12423;48.768;8.850;2023-05-27T05:27:06;14.23;;;4.00;;
24305;SDS011;12423;48.768;8.850;2023-05-27T05:29:09;16.08;;;3.95;;
24305;SDS011;12423;48.768;8.850;2023-05-27T05:31:10;16.50;;;4.07;;
24305;SDS011;12423;48.768;8.850;2023-05-27T05:33:11;14.90;;;4.30;;
24305;SDS011;12423;48.768;8.850;2023-05-27T05:35:12;12.88;;;4.00;;
24305;SDS011;12423;48.768;8.850;2023-05-27T05:37:18;14.02;;;4.30;;
24305;SDS011;12423;48.768;8.850;2023-05-27T05:39:21;11.77;;;4.30;;
24305;SDS011;12423;48.768;8.850;2023-05-27T05:41:26;16.23;;;4.53;;
24305;SDS011;12423;48.768;8.850;2023-05-27T05:43:27;13.93;;;4.10;;
24305;SDS011;12423;48.768;8.850;2023-05-27T05:45:29;14.07;;;4.32;;
24305;SDS011;12423;48.768;8.850;2023-05-27T05:47:31;16.17;;;4.38;;
24305;SDS011;12423;48.768;8.850;2023-05-27T05:49:39;16.83;;;4.25;;
24305;SDS011;12423;48.768;8.850;2023-05-27T05:51:43;14.43;;;4.45;;
24305;SDS011;12423;48.768;8.850;2023-05-27T05:53:45;16.13;;;4.03;;
24305;SDS011;12423;48.768;8.850;2023-05-27T05:55:46;14.98;;;4.55;;
24305;SDS011;12423;48.768;8.850;2023-05-27T05:57:48;10.32;;;3.78;;
24305;SDS011;12423;48.768;8.850;2023-05-27T05:59:49;13.02;;;3.53;;
24305;SDS011;12423;48.768;8.850;2023-05-27T06:01:51;16.65;;;4.75;;
24305;SDS011;12423;48.768;8.850;2023-05-27T06:03:53;11.13;;;3.75;;
24305;SDS011;12423;48.768;8.850;2023-05-27T06:06:09;17.00;;;4.70;;
24305;SDS011;12423;48.768;8.850;2023-05-27T06:08:25;12.73;;;3.47;;
24305;SDS011;12423;48.768;8.850;2023-05-27T06:10:47;15.30;;;4.30;;
24305;SDS011;12423;48.768;8.850;2023-05-27T06:12:48;11.85;;;3.90;;
24305;SDS011;12423;48.768;8.850;2023-05-27T06:14:49;12.98;;;4.30;;
24305;SDS011;12423;48.768;8.850;2023-05-27T06:16:59;13.75;;;4.25;;
24305;SDS011;12423;48.768;8.850;2023-05-27T06:19:02;12.50;;;3.95;;
24305;SDS011;12423;48.768;8.850;2023-05-27T06:21:03;11.18;;;3.90;;
24305;SDS011;12423;48.768;8.850;2023-05-27T06:23:16;14.82;;;4.03;;
24305;SDS011;12423;48.768;8.850;2023-05-27T06:25:36;13.95;;;4.55;;
24305;SDS011;12423;48.768;8.850;2023-05-27T06:27:40;12.18;;;4.22;;
24305;SDS011;12423;48.768;8.850;2023-05-27T06:29:43;12.02;;;4.13;;
24305;SDS011;12423;48.768;8.850;2023-05-27T06:31:45;13.98;;;4.07;;
24305;SDS011;12423;48.768;8.850;2023-05-27T06:33:49;10.73;;;3.97;;
24305;SDS011;12423;48.768;8.850;2023-05-27T06:35:51;11.32;;;4.35;;
24305;SDS011;12423;48.768;8.850;2023-05-27T06:37:53;12.35;;;3.97;;
24305;SDS011;12423;48.768;8.850;2023-05-27T06:39:54;12.70;;;3.90;;
24305;SDS011;12423;48.768;8.850;2023-05-27T06:41:55;12.70;;;3.67;;
24305;SDS011;12423;48.768;8.850;2023-05-27T06:44:14;12.88;;;3.83;;
24305;SDS011;12423;48.768;8.850;2023-05-27T06:46:27;12.02;;;3.50;;
24305;SDS011;12423;48.768;8.850;2023-05-27T06:48:40;14.43;;;4.18;;
24305;SDS011;12423;48.768;8.850;2023-05-27T06:50:42;18.13;;;4.55;;
24305;SDS011;12423;48.768;8.850;2023-05-27T06:52:43;12.20;;;3.85;;
24305;SDS011;12423;48.768;8.850;2023-05-27T06:55:03;16.90;;;4.25;;
24305;SDS011;12423;48.768;8.850;2023-05-27T06:57:36;14.93;;;4.65;;
24305;SDS011;12423;48.768;8.850;2023-05-27T07:01:46;11.18;;;3.47;;
24305;SDS011;12423;48.768;8.850;2023-05-27T07:03:49;14.38;;;3.75;;
24305;SDS011;12423;48.768;8.850;2023-05-27T07:05:56;13.90;;;4.30;;
24305;SDS011;12423;48.768;8.850;2023-05-27T07:07:59;14.07;;;3.92;;
24305;SDS011;12423;48.768;8.850;2023-05-27T07:10:00;7.25;;;3.53;;
24305;SDS011;12423;48.768;8.850;2023-05-27T07:12:01;12.25;;;3.55;;
24305;SDS011;12423;48.768;8.850;2023-05-27T07:14:22;13.90;;;4.15;;
24305;SDS011;12423;48.768;8.850;2023-05-27T07:16:23;8.45;;;4.05;;
24305;SDS011;12423;48.768;8.850;2023-05-27T07:18:24;11.38;;;4.20;;
24305;SDS011;12423;48.768;8.850;2023-05-27T07:20:28;14.02;;;4.43;;
24305;SDS011;12423;48.768;8.850;2023-05-27T07:22:30;15.05;;;4.03;;
24305;SDS011;12423;48.768;8.850;2023-05-27T07:24:32;14.15;;;4.82;;
24305;SDS011;12423;48.768;8.850;2023-05-27T07:26:33;10.95;;;4.38;;
24305;SDS011;12423;48.768;8.850;2023-05-27T07:28:34;12.48;;;4.40;;
24305;SDS011;12423;48.768;8.850;2023-05-27T07:30:46;15.43;;;3.75;;
24305;SDS011;12423;48.768;8.850;2023-05-27T07:32:47;16.95;;;4.72;;
24305;SDS011;12423;48.768;8.850;2023-05-27T07:34:48;10.65;;;4.07;;
24305;SDS011;12423;48.768;8.850;2023-05-27T07:36:49;11.68;;;3.60;;
24305;SDS011;12423;48.768;8.850;2023-05-27T07:38:50;12.98;;;4.22;;
24305;SDS011;12423;48.768;8.850;2023-05-27T07:40:52;11.98;;;4.30;;
24305;SDS011;12423;48.768;8.850;2023-05-27T07:42:53;13.82;;;4.60;;
24305;SDS011;12423;48.768;8.850;2023-05-27T07:44:54;9.18;;;3.85;;
24305;SDS011;12423;48.768;8.850;2023-05-27T07:46:56;11.82;;;4.65;;
24305;SDS011;12423;48.768;8.850;2023-05-27T07:48:57;12.13;;;5.50;;
24305;SDS011;12423;48.768;8.850;2023-05-27T07:50:58;12.50;;;5.15;;
24305;SDS011;12423;48.768;8.850;2023-05-27T07:53:00;13.18;;;4.60;;
24305;SDS011;12423;48.768;8.850;2023-05-27T07:55:04;13.23;;;4.68;;
24305;SDS011;12423;48.768;8.850;2023-05-27T07:57:05;12.20;;;4.55;;
24305;SDS011;12423;48.768;8.850;2023-05-27T07:59:07;12.20;;;4.22;;
24305;SDS011;12423;48.768;8.850;2023-05-27T08:01:08;15.00;;;4.75;;
24305;SDS011;12423;48.768;8.850;2023-05-27T08:03:09;12.55;;;5.03;;
24305;SDS011;12423;48.768;8.850;2023-05-27T08:05:37;12.23;;;4.18;;
24305;SDS011;12423;48.768;8.850;2023-05-27T08:07:57;14.57;;;4.70;;
24305;SDS011;12423;48.768;8.850;2023-05-27T08:10:17;11.80;;;4.72;;
24305;SDS011;12423;48.768;8.850;2023-05-27T08:12:33;15.00;;;4.03;;
24305;SDS011;12423;48.768;8.850;2023-05-27T08:14:48;17.20;;;4.57;;
24305;SDS011;12423;48.768;8.850;2023-05-27T08:17:08;12.50;;;4.45;;
24305;SDS011;12423;48.768;8.850;2023-05-27T08:19:20;16.63;;;4.70;;
24305;SDS011;12423;48.768;8.850;2023-05-27T08:21:26;15.55;;;4.85;;
24305;SDS011;12423;48.768;8.850;2023-05-27T08:23:45;8.30;;;3.45;;
24305;SDS011;12423;48.768;8.850;2023-05-27T08:25:57;13.65;;;4.18;;
24305;SDS011;12423;48.768;8.850;2023-05-27T08:28:24;13.55;;;5.32;;
24305;SDS011;12423;48.768;8.850;2023-05-27T08:30:37;13.48;;;3.72;;
24305;SDS011;12423;48.768;8.850;2023-05-27T08:32:44;10.77;;;4.20;;
24305;SDS011;12423;48.768;8.850;2023-05-27T08:34:46;13.63;;;4.80;;
24305;SDS011;12423;48.768;8.850;2023-05-27T08:36:47;11.45;;;4.45;;
24305;SDS011;12423;48.768;8.850;2023-05-27T08:38:48;13.40;;;4.32;;
24305;SDS011;12423;48.768;8.850;2023-05-27T08:41:00;15.88;;;4.25;;
24305;SDS011;12423;48.768;8.850;2023-05-27T08:43:01;16.10;;;4.40;;
24305;SDS011;12423;48.768;8.850;2023-05-27T08:45:03;12.18;;;4.63;;
24305;SDS011;12423;48.768;8.850;2023-05-27T08:47:06;10.88;;;4.45;;
24305;SDS011;12423;48.768;8.850;2023-05-27T08:49:09;14.95;;;3.85;;
24305;SDS011;12423;48.768;8.850;2023-05-27T08:51:10;14.05;;;4.40;;
24305;SDS011;12423;48.768;8.850;2023-05-27T08:53:12;16.00;;;4.90;;
24305;SDS011;12423;48.768;8.850;2023-05-27T08:55:17;14.73;;;4.57;;
24305;SDS011;12423;48.768;8.850;2023-05-27T08:57:22;11.43;;;4.30;;
24305;SDS011;12423;48.768;8.850;2023-05-27T08:59:31;12.55;;;4.20;;
24305;SDS011;12423;48.768;8.850;2023-05-27T09:01:32;9.93;;;4.70;;
24305;SDS011;12423;48.768;8.850;2023-05-27T09:03:35;14.50;;;4.22;;
24305;SDS011;12423;48.768;8.850;2023-05-27T09:05:37;11.20;;;4.57;;
24305;SDS011;12423;48.768;8.850;2023-05-27T09:07:38;9.38;;;4.45;;
24305;SDS011;12423;48.768;8.850;2023-05-27T09:09:39;13.70;;;4.28;;
24305;SDS011;12423;48.768;8.850;2023-05-27T09:11:40;9.85;;;4.35;;
24305;SDS011;12423;48.768;8.850;2023-05-27T09:13:43;12.27;;;4.50;;
24305;SDS011;12423;48.768;8.850;2023-05-27T09:15:44;13.05;;;5.05;;
24305;SDS011;12423;48.768;8.850;2023-05-27T09:17:45;13.98;;;4.43;;
24305;SDS011;12423;48.768;8.850;2023-05-27T09:19:47;15.38;;;4.30;;
24305;SDS011;12423;48.768;8.850;2023-05-27T09:21:51;11.73;;;4.60;;
24305;SDS011;12423;48.768;8.850;2023-05-27T09:23:56;12.88;;;4.70;;
24305;SDS011;12423;48.768;8.850;2023-05-27T09:25:58;10.50;;;4.18;;
24305;SDS011;12423;48.768;8.850;2023-05-27T09:27:59;14.23;;;5.03;;
24305;SDS011;12423;48.768;8.850;2023-05-27T09:30:06;13.43;;;4.82;;
24305;SDS011;12423;48.768;8.850;2023-05-27T09:32:08;12.23;;;4.93;;
24305;SDS011;12423;48.768;8.850;2023-05-27T09:34:10;11.48;;;4.50;;
24305;SDS011;12423;48.768;8.850;2023-05-27T09:36:12;14.70;;;4.07;;
24305;SDS011;12423;48.768;8.850;2023-05-27T09:38:14;19.23;;;4.40;;
24305;SDS011;12423;48.768;8.850;2023-05-27T09:40:15;11.45;;;4.35;;
24305;SDS011;12423;48.768;8.850;2023-05-27T09:42:16;12.63;;;5.20;;
24305;SDS011;12423;48.768;8.850;2023-05-27T09:44:17;11.18;;;4.38;;
24305;SDS011;12423;48.768;8.850;2023-05-27T09:46:18;9.48;;;4.32;;
24305;SDS011;12423;48.768;8.850;2023-05-27T09:48:19;11.30;;;4.65;;
24305;SDS011;12423;48.768;8.850;2023-05-27T09:50:21;10.65;;;4.55;;
24305;SDS011;12423;48.768;8.850;2023-05-27T09:52:22;13.63;;;4.95;;
24305;SDS011;12423;48.768;8.850;2023-05-27T09:54:25;12.10;;;4.43;;
24305;SDS011;12423;48.768;8.850;2023-05-27T09:56:26;10.43;;;4.10;;
24305;SDS011;12423;48.768;8.850;2023-05-27T09:58:28;11.13;;;4.60;;
24305;SDS011;12423;48.768;8.850;2023-05-27T10:00:30;10.48;;;4.93;;
24305;SDS011;12423;48.768;8.850;2023-05-27T10:02:33;12.45;;;4.68;;
24305;SDS011;12423;48.768;8.850;2023-05-27T10:04:36;10.23;;;4.45;;
24305;SDS011;12423;48.768;8.850;2023-05-27T10:06:37;12.35;;;4.57;;
24305;SDS011;12423;48.768;8.850;2023-05-27T10:08:41;8.93;;;4.10;;
24305;SDS011;12423;48.768;8.850;2023-05-27T10:10:44;11.93;;;4.85;;
24305;SDS011;12423;48.768;8.850;2023-05-27T10:12:46;13.50;;;4.57;;
24305;SDS011;12423;48.768;8.850;2023-05-27T10:14:50;13.95;;;4.75;;
24305;SDS011;12423;48.768;8.850;2023-05-27T10:16:52;9.18;;;4.30;;
24305;SDS011;12423;48.768;8.850;2023-05-27T10:18:56;19.83;;;5.13;;
24305;SDS011;12423;48.768;8.850;2023-05-27T10:20:58;12.93;;;4.32;;
24305;SDS011;12423;48.768;8.850;2023-05-27T10:25:13;11.65;;;4.70;;
24305;SDS011;12423;48.768;8.850;2023-05-27T10:27:14;13.40;;;4.72;;
24305;SDS011;12423;48.768;8.850;2023-05-27T10:29:16;13.85;;;4.90;;
24305;SDS011;12423;48.768;8.850;2023-05-27T10:31:20;11.05;;;5.13;;
24305;SDS011;12423;48.768;8.850;2023-05-27T10:33:30;9.55;;;4.47;;
24305;SDS011;12423;48.768;8.850;2023-05-27T10:35:39;12.90;;;4.80;;
24305;SDS011;12423;48.768;8.850;2023-05-27T10:37:41;11.90;;;4.97;;
24305;SDS011;12423;48.768;8.850;2023-05-27T10:39:43;13.20;;;5.43;;
24305;SDS011;12423;48.768;8.850;2023-05-27T10:41:55;11.65;;;4.57;;
24305;SDS011;12423;48.768;8.850;2023-05-27T10:43:57;9.73;;;4.22;;
24305;SDS011;12423;48.768;8.850;2023-05-27T10:46:09;9.88;;;4.60;;
24305;SDS011;12423;48.768;8.850;2023-05-27T10:48:19;11.20;;;4.30;;
24305;SDS011;12423;48.768;8.850;2023-05-27T10:50:20;10.55;;;4.45;;
24305;SDS011;12423;48.768;8.850;2023-05-27T10:52:32;11.73;;;4.97;;
24305;SDS011;12423;48.768;8.850;2023-05-27T10:54:37;11.43;;;4.60;;
24305;SDS011;12423;48.768;8.850;2023-05-27T10:56:47;12.43;;;4.55;;
24305;SDS011;12423;48.768;8.850;2023-05-27T10:58:50;11.18;;;4.68;;
24305;SDS011;12423;48.768;8.850;2023-05-27T11:00:52;11.98;;;4.13;;
24305;SDS011;12423;48.768;8.850;2023-05-27T11:02:55;12.00;;;4.55;;
24305;SDS011;12423;48.768;8.850;2023-05-27T11:04:56;9.05;;;4.70;;
24305;SDS011;12423;48.768;8.850;2023-05-27T11:07:00;9.20;;;4.43;;
24305;SDS011;12423;48.768;8.850;2023-05-27T11:09:01;10.77;;;4.95;;
24305;SDS011;12423;48.768;8.850;2023-05-27T11:11:09;13.68;;;5.50;;
24305;SDS011;12423;48.768;8.850;2023-05-27T11:13:11;10.07;;;4.65;;
24305;SDS011;12423;48.768;8.850;2023-05-27T11:15:12;8.20;;;4.13;;
24305;SDS011;12423;48.768;8.850;2023-05-27T11:17:13;12.88;;;4.90;;
24305;SDS011;12423;48.768;8.850;2023-05-27T11:19:14;8.50;;;4.13;;
24305;SDS011;12423;48.768;8.850;2023-05-27T11:21:15;8.82;;;3.88;;
24305;SDS011;12423;48.768;8.850;2023-05-27T11:23:17;8.15;;;4.10;;
24305;SDS011;12423;48.768;8.850;2023-05-27T11:25:18;9.60;;;3.92;;
24305;SDS011;12423;48.768;8.850;2023-05-27T11:27:19;9.15;;;4.75;;
24305;SDS011;12423;48.768;8.850;2023-05-27T11:29:20;10.23;;;4.47;;
24305;SDS011;12423;48.768;8.850;2023-05-27T11:31:26;11.93;;;4.45;;
24305;SDS011;12423;48.768;8.850;2023-05-27T11:33:32;11.35;;;4.43;;
24305;SDS011;12423;48.768;8.850;2023-05-27T11:35:33;9.10;;;4.68;;
24305;SDS011;12423;48.768;8.850;2023-05-27T11:37:35;10.13;;;4.47;;
24305;SDS011;12423;48.768;8.850;2023-05-27T11:39:37;19.48;;;4.47;;
24305;SDS011;12423;48.768;8.850;2023-05-27T11:41:47;10.05;;;4.63;;
24305;SDS011;12423;48.768;8.850;2023-05-27T11:43:58;10.27;;;3.88;;
24305;SDS011;12423;48.768;8.850;2023-05-27T11:46:04;9.80;;;4.38;;
24305;SDS011;12423;48.768;8.850;2023-05-27T11:48:05;8.57;;;4.22;;
24305;SDS011;12423;48.768;8.850;2023-05-27T11:50:06;8.77;;;4.18;;
24305;SDS011;12423;48.768;8.850;2023-05-27T11:52:07;11.48;;;4.68;;
24305;SDS011;12423;48.768;8.850;2023-05-27T11:54:20;10.68;;;4.80;;
24305;SDS011;12423;48.768;8.850;2023-05-27T11:56:24;8.90;;;4.05;;
24305;SDS011;12423;48.768;8.850;2023-05-27T11:58:26;9.15;;;4.10;;
24305;SDS011;12423;48.768;8.850;2023-05-27T12:00:27;8.02;;;3.78;;
24305;SDS011;12423;48.768;8.850;2023-05-27T12:02:28;8.82;;;4.65;;
24305;SDS011;12423;48.768;8.850;2023-05-27T12:04:29;8.38;;;4.68;;
24305;SDS011;12423;48.768;8.850;2023-05-27T12:06:30;10.38;;;4.20;;
24305;SDS011;12423;48.768;8.850;2023-05-27T12:08:32;9.45;;;4.43;;
24305;SDS011;12423;48.768;8.850;2023-05-27T12:10:33;9.02;;;4.20;;
24305;SDS011;12423;48.768;8.850;2023-05-27T12:12:34;6.90;;;3.97;;
24305;SDS011;12423;48.768;8.850;2023-05-27T12:14:35;8.80;;;4.57;;
24305;SDS011;12423;48.768;8.850;2023-05-27T12:16:36;786.72;;;726.17;;
24305;SDS011;12423;48.768;8.850;2023-05-27T12:18:37;554.80;;;514.33;;
24305;SDS011;12423;48.768;8.850;2023-05-27T12:20:39;677.38;;;626.28;;
24305;SDS011;12423;48.768;8.850;2023-05-27T12:22:40;721.92;;;667.60;;
24305;SDS011;12423;48.768;8.850;2023-05-27T12:24:41;760.42;;;702.55;;